Bradley International Airport
KBDL : now visible

Airfield :











YOU CAN JOIN US ON...

 
LOGIN :

Register | Disclaimer

   EN    FR    IT 

 









Legend :    VFR   Marginal VFR   IFR   Intensive IFR   Very Intensive IFR
Visi :
Ceiling :
>= 8 km
>= 3000ft
5 to 8 km
1000 to 3000 ft
1500m to 5 km
500 to 1000 ft
800 to 1500m
200 to 500 ft
< 800m
< 200 ft
Symbols :   Thunderstorms  Fog  Heavy snow  Heavy precipitations  Wind > 20 kt






- Airport Elevation : 173 ft
- IATA code : BDL


KBDL - Bradley International

CURRENT METAR :
  • 042151Z 18025G30KT 7SM -RA BKN022 OVC030 23/19 A2955 RMK AO2 PK WND 16041/2053 SLP005 PCPN VRY LGT P0001 T02280194 $

EXPIRED METARs :
  • 042051Z 17031G44KT 8SM -RA OVC024 23/19 A2955 RMK AO2 PK WND 17053/2030 RAB10 SLP007 P0000 60014 T02280189 56076 $
  • 041951Z 16024G49KT 10SM FEW021 BKN025 BKN041 26/22 A2959 RMK AO2 PK WND 16049/1942 RAE48 SLP018 P0009 T02560222 $
  • 041915Z 13019G31KT 3SM R06/3500VP6000FT +RA BR FEW020 BKN028 OVC036 24/22 A2962 RMK AO2 PK WND 12041/1858 P0005 T02440222

TAF KBDL
Valid from the 04 at 21:00 until the 06 at 00:00 UTC


042104Z 0421/0524 14024G45KT 6SM -SHRA BR OVC020
FM050000 21020G35KT P6SM BKN035
FM050300 22013KT P6SM BKN040
KZBW FIR / North America



MET'MAP, your aeronautical weather chart ! - Copyright ORBIFLY December 2007 - Disclaimer

ORBIFLY MET'MAP TEAM :

Programming & Development : Alexandra Zaïnal
Concept & original design : Baudouin d'Aumeries
Assistance for programming : Marc-Olivier Méhu
Technical & hardware support : Manuel Goepfert

Contact : metmap@orbifly.com




SOURCES & CREDITS :

   NOAA       Earth
Advisory